Bismarck, North Dakota
Current Conditions -  °F | °C
As of 6:52 AM on Thursday 30 Oct 2014 (Local Time) from KBIS Reporting Station
Clear Clear  
Wind Chill: 26°   Ceiling: Unl
Heat Index: 34°   Visibility: 10mi
Dew Point: 32°   Wind: 10mph
Humidity: 92%   Direction: 340°NNW
Pressure: 30.18"   Gusts: NA
Location:  46.81°N, 100.77°W
Report Text: KBIS 301152Z 34009KT 10SM CLR 01/00 A3018 RMK AO2 SLP236 70004 T00110000 10039 20011 51040
Loading
Personal Weather Stations






























Interactive Weather Map
Tropical Storm Tracking
New forecast layout! Learn more

10-Day Weather Forecast

Advertisements
Track Severe Weather on mobile